Memphis, Missouri
Current Conditions -  °F | °C
As of 12:55 PM on Friday 21 Nov 2014 (Local Time) from KIRK Reporting Station
Broken Clouds Broken Clouds  
Wind Chill: 29°   Ceiling: 2400
Heat Index: 38°   Visibility: 10mi
Dew Point: 19°   Wind: 16mph
Humidity: 47%   Direction: 130°SE
Pressure: 30.25"   Gusts: NA
Location:  40.46°N, 92.17°W
Report Text: KIRK 211855Z AUTO 13014KT 10SM BKN024 03/M07 A3025 RMK AO2 SLP257 T00331072
Loading
Personal Weather Stations






























Interactive Weather Map New forecast layout! Learn more

10-Day Weather Forecast

Advertisements
Track Severe Weather on mobile